sensor_id;sensor_type;location;lat;lon;timestamp;P1;durP1;ratioP1;P2;durP2;ratioP2
9860;SDS011;4969;52.304;4.968;2023-05-10T00:00:26;33.00;;;29.33;;
9860;SDS011;4969;52.304;4.968;2023-05-10T00:02:53;36.45;;;30.42;;
9860;SDS011;4969;52.304;4.968;2023-05-10T00:05:19;37.72;;;30.33;;
9860;SDS011;4969;52.304;4.968;2023-05-10T00:07:47;28.03;;;25.00;;
9860;SDS011;4969;52.304;4.968;2023-05-10T00:10:14;36.03;;;30.67;;
9860;SDS011;4969;52.304;4.968;2023-05-10T00:12:41;34.78;;;30.10;;
9860;SDS011;4969;52.304;4.968;2023-05-10T00:15:08;41.78;;;31.77;;
9860;SDS011;4969;52.304;4.968;2023-05-10T00:17:35;38.90;;;31.17;;
9860;SDS011;4969;52.304;4.968;2023-05-10T00:20:01;38.20;;;30.93;;
9860;SDS011;4969;52.304;4.968;2023-05-10T00:22:29;33.35;;;28.85;;
9860;SDS011;4969;52.304;4.968;2023-05-10T00:24:57;38.60;;;30.60;;
9860;SDS011;4969;52.304;4.968;2023-05-10T00:27:24;38.17;;;29.67;;
9860;SDS011;4969;52.304;4.968;2023-05-10T00:29:51;33.50;;;29.37;;
9860;SDS011;4969;52.304;4.968;2023-05-10T00:32:17;34.60;;;30.50;;
9860;SDS011;4969;52.304;4.968;2023-05-10T00:34:44;34.10;;;29.90;;
9860;SDS011;4969;52.304;4.968;2023-05-10T00:37:11;37.28;;;31.38;;
9860;SDS011;4969;52.304;4.968;2023-05-10T00:39:37;38.20;;;31.17;;
9860;SDS011;4969;52.304;4.968;2023-05-10T00:42:05;38.57;;;31.97;;
9860;SDS011;4969;52.304;4.968;2023-05-10T00:44:32;39.72;;;33.53;;
9860;SDS011;4969;52.304;4.968;2023-05-10T00:46:58;40.17;;;32.70;;
9860;SDS011;4969;52.304;4.968;2023-05-10T00:49:25;39.43;;;26.57;;
9860;SDS011;4969;52.304;4.968;2023-05-10T00:51:52;31.85;;;27.70;;
9860;SDS011;4969;52.304;4.968;2023-05-10T00:54:19;41.40;;;32.83;;
9860;SDS011;4969;52.304;4.968;2023-05-10T00:56:46;37.00;;;31.80;;
9860;SDS011;4969;52.304;4.968;2023-05-10T00:59:15;38.00;;;31.75;;
9860;SDS011;4969;52.304;4.968;2023-05-10T01:01:42;35.13;;;29.98;;
9860;SDS011;4969;52.304;4.968;2023-05-10T01:04:10;31.58;;;26.00;;
9860;SDS011;4969;52.304;4.968;2023-05-10T01:06:37;32.97;;;28.02;;
9860;SDS011;4969;52.304;4.968;2023-05-10T01:09:04;29.73;;;25.58;;
9860;SDS011;4969;52.304;4.968;2023-05-10T01:11:31;32.50;;;29.15;;
9860;SDS011;4969;52.304;4.968;2023-05-10T01:13:58;31.02;;;27.73;;
9860;SDS011;4969;52.304;4.968;2023-05-10T01:16:26;30.67;;;27.48;;
9860;SDS011;4969;52.304;4.968;2023-05-10T01:18:55;31.55;;;28.45;;
9860;SDS011;4969;52.304;4.968;2023-05-10T01:21:23;32.97;;;29.50;;
9860;SDS011;4969;52.304;4.968;2023-05-10T01:24:09;32.78;;;29.65;;
9860;SDS011;4969;52.304;4.968;2023-05-10T01:29:51;30.60;;;26.95;;
9860;SDS011;4969;52.304;4.968;2023-05-10T01:32:36;31.80;;;28.60;;
9860;SDS011;4969;52.304;4.968;2023-05-10T01:35:10;30.48;;;27.52;;
9860;SDS011;4969;52.304;4.968;2023-05-10T01:37:44;31.45;;;28.00;;
9860;SDS011;4969;52.304;4.968;2023-05-10T01:40:17;32.50;;;29.20;;
9860;SDS011;4969;52.304;4.968;2023-05-10T01:42:51;31.85;;;28.60;;
9860;SDS011;4969;52.304;4.968;2023-05-10T01:45:33;33.35;;;29.42;;
9860;SDS011;4969;52.304;4.968;2023-05-10T01:48:07;32.70;;;29.30;;
9860;SDS011;4969;52.304;4.968;2023-05-10T01:50:37;33.67;;;30.15;;
9860;SDS011;4969;52.304;4.968;2023-05-10T01:53:06;34.50;;;30.85;;
9860;SDS011;4969;52.304;4.968;2023-05-10T01:55:36;34.72;;;30.88;;
9860;SDS011;4969;52.304;4.968;2023-05-10T01:58:09;34.33;;;30.70;;
9860;SDS011;4969;52.304;4.968;2023-05-10T02:00:40;35.42;;;31.40;;
9860;SDS011;4969;52.304;4.968;2023-05-10T02:03:10;30.05;;;26.95;;
9860;SDS011;4969;52.304;4.968;2023-05-10T02:05:38;36.42;;;30.58;;
9860;SDS011;4969;52.304;4.968;2023-05-10T02:08:07;34.75;;;31.05;;
9860;SDS011;4969;52.304;4.968;2023-05-10T02:10:35;31.48;;;28.20;;
9860;SDS011;4969;52.304;4.968;2023-05-10T02:13:02;25.55;;;23.05;;
9860;SDS011;4969;52.304;4.968;2023-05-10T02:15:29;31.92;;;28.63;;
9860;SDS011;4969;52.304;4.968;2023-05-10T02:17:56;27.20;;;24.30;;
9860;SDS011;4969;52.304;4.968;2023-05-10T02:20:27;34.08;;;30.55;;
9860;SDS011;4969;52.304;4.968;2023-05-10T02:22:54;34.50;;;30.95;;
9860;SDS011;4969;52.304;4.968;2023-05-10T02:25:23;36.35;;;32.78;;
9860;SDS011;4969;52.304;4.968;2023-05-10T02:27:51;39.90;;;33.47;;
9860;SDS011;4969;52.304;4.968;2023-05-10T02:30:22;33.78;;;30.25;;
9860;SDS011;4969;52.304;4.968;2023-05-10T02:32:50;34.53;;;30.93;;
9860;SDS011;4969;52.304;4.968;2023-05-10T02:35:17;38.00;;;33.95;;
9860;SDS011;4969;52.304;4.968;2023-05-10T02:37:46;38.65;;;34.25;;
9860;SDS011;4969;52.304;4.968;2023-05-10T02:40:14;33.60;;;29.80;;
9860;SDS011;4969;52.304;4.968;2023-05-10T02:42:42;35.90;;;30.40;;
9860;SDS011;4969;52.304;4.968;2023-05-10T02:45:11;34.83;;;30.83;;
9860;SDS011;4969;52.304;4.968;2023-05-10T02:47:40;34.90;;;30.27;;
9860;SDS011;4969;52.304;4.968;2023-05-10T02:50:07;33.15;;;26.88;;
9860;SDS011;4969;52.304;4.968;2023-05-10T02:52:36;34.27;;;25.70;;
9860;SDS011;4969;52.304;4.968;2023-05-10T02:55:09;38.23;;;29.70;;
9860;SDS011;4969;52.304;4.968;2023-05-10T02:57:38;33.03;;;26.45;;
9860;SDS011;4969;52.304;4.968;2023-05-10T03:00:08;36.40;;;28.00;;
9860;SDS011;4969;52.304;4.968;2023-05-10T03:02:35;34.67;;;27.57;;
9860;SDS011;4969;52.304;4.968;2023-05-10T03:05:02;36.87;;;27.77;;
9860;SDS011;4969;52.304;4.968;2023-05-10T03:07:29;37.83;;;29.87;;
9860;SDS011;4969;52.304;4.968;2023-05-10T03:09:55;34.23;;;28.50;;
9860;SDS011;4969;52.304;4.968;2023-05-10T03:12:26;30.27;;;26.30;;
9860;SDS011;4969;52.304;4.968;2023-05-10T03:15:00;39.07;;;30.30;;
9860;SDS011;4969;52.304;4.968;2023-05-10T03:17:35;39.00;;;30.13;;
9860;SDS011;4969;52.304;4.968;2023-05-10T03:20:15;35.40;;;31.57;;
9860;SDS011;4969;52.304;4.968;2023-05-10T03:22:47;39.20;;;30.23;;
9860;SDS011;4969;52.304;4.968;2023-05-10T03:25:17;39.03;;;32.47;;
9860;SDS011;4969;52.304;4.968;2023-05-10T03:27:48;38.73;;;32.37;;
9860;SDS011;4969;52.304;4.968;2023-05-10T03:30:15;39.93;;;32.97;;
9860;SDS011;4969;52.304;4.968;2023-05-10T03:32:42;36.57;;;31.77;;
9860;SDS011;4969;52.304;4.968;2023-05-10T03:35:09;38.23;;;30.97;;
9860;SDS011;4969;52.304;4.968;2023-05-10T03:37:38;42.17;;;35.17;;
9860;SDS011;4969;52.304;4.968;2023-05-10T03:40:05;32.40;;;28.63;;
9860;SDS011;4969;52.304;4.968;2023-05-10T03:42:32;31.40;;;27.27;;
9860;SDS011;4969;52.304;4.968;2023-05-10T03:45:00;32.83;;;26.83;;
9860;SDS011;4969;52.304;4.968;2023-05-10T03:47:27;34.92;;;31.17;;
9860;SDS011;4969;52.304;4.968;2023-05-10T03:49:54;37.97;;;31.87;;
9860;SDS011;4969;52.304;4.968;2023-05-10T03:52:21;36.63;;;28.20;;
9860;SDS011;4969;52.304;4.968;2023-05-10T03:54:47;37.87;;;31.47;;
9860;SDS011;4969;52.304;4.968;2023-05-10T03:57:14;45.23;;;33.07;;
9860;SDS011;4969;52.304;4.968;2023-05-10T03:59:40;45.33;;;32.33;;
9860;SDS011;4969;52.304;4.968;2023-05-10T04:02:08;37.07;;;27.83;;
9860;SDS011;4969;52.304;4.968;2023-05-10T04:04:35;38.70;;;28.87;;
9860;SDS011;4969;52.304;4.968;2023-05-10T04:07:01;31.77;;;23.90;;
9860;SDS011;4969;52.304;4.968;2023-05-10T04:09:29;26.23;;;21.07;;
9860;SDS011;4969;52.304;4.968;2023-05-10T04:11:55;21.03;;;18.73;;
9860;SDS011;4969;52.304;4.968;2023-05-10T04:14:22;23.83;;;18.93;;
9860;SDS011;4969;52.304;4.968;2023-05-10T04:16:48;22.70;;;18.33;;
9860;SDS011;4969;52.304;4.968;2023-05-10T04:19:16;21.70;;;18.43;;
9860;SDS011;4969;52.304;4.968;2023-05-10T04:21:43;21.90;;;18.53;;
9860;SDS011;4969;52.304;4.968;2023-05-10T04:24:09;18.73;;;16.73;;
9860;SDS011;4969;52.304;4.968;2023-05-10T04:26:36;18.23;;;16.17;;
9860;SDS011;4969;52.304;4.968;2023-05-10T04:29:02;18.47;;;16.20;;
9860;SDS011;4969;52.304;4.968;2023-05-10T04:31:29;18.83;;;15.37;;
9860;SDS011;4969;52.304;4.968;2023-05-10T04:33:55;21.30;;;17.50;;
9860;SDS011;4969;52.304;4.968;2023-05-10T04:36:23;22.00;;;18.90;;
9860;SDS011;4969;52.304;4.968;2023-05-10T04:38:50;22.80;;;19.03;;
9860;SDS011;4969;52.304;4.968;2023-05-10T04:41:16;19.80;;;17.70;;
9860;SDS011;4969;52.304;4.968;2023-05-10T04:43:43;21.00;;;18.80;;
9860;SDS011;4969;52.304;4.968;2023-05-10T04:46:09;23.93;;;19.73;;
9860;SDS011;4969;52.304;4.968;2023-05-10T04:48:36;23.90;;;19.93;;
9860;SDS011;4969;52.304;4.968;2023-05-10T04:51:03;24.63;;;19.70;;
9860;SDS011;4969;52.304;4.968;2023-05-10T04:53:32;27.90;;;21.60;;
9860;SDS011;4969;52.304;4.968;2023-05-10T04:55:59;27.63;;;19.87;;
9860;SDS011;4969;52.304;4.968;2023-05-10T04:58:26;29.60;;;21.70;;
9860;SDS011;4969;52.304;4.968;2023-05-10T05:00:52;30.10;;;21.50;;
9860;SDS011;4969;52.304;4.968;2023-05-10T05:03:19;29.97;;;21.17;;
9860;SDS011;4969;52.304;4.968;2023-05-10T05:05:45;30.57;;;21.27;;
9860;SDS011;4969;52.304;4.968;2023-05-10T05:08:12;26.07;;;20.40;;
9860;SDS011;4969;52.304;4.968;2023-05-10T05:10:40;26.00;;;18.97;;
9860;SDS011;4969;52.304;4.968;2023-05-10T05:13:06;24.60;;;19.10;;
9860;SDS011;4969;52.304;4.968;2023-05-10T05:15:33;24.03;;;18.80;;
9860;SDS011;4969;52.304;4.968;2023-05-10T05:17:59;25.40;;;17.43;;
9860;SDS011;4969;52.304;4.968;2023-05-10T05:20:26;22.00;;;16.37;;
9860;SDS011;4969;52.304;4.968;2023-05-10T05:22:52;25.77;;;19.07;;
9860;SDS011;4969;52.304;4.968;2023-05-10T05:25:19;26.93;;;19.20;;
9860;SDS011;4969;52.304;4.968;2023-05-10T05:27:47;21.13;;;17.13;;
9860;SDS011;4969;52.304;4.968;2023-05-10T05:30:14;26.20;;;18.53;;
9860;SDS011;4969;52.304;4.968;2023-05-10T05:32:40;24.90;;;17.83;;
9860;SDS011;4969;52.304;4.968;2023-05-10T05:35:07;22.13;;;17.47;;
9860;SDS011;4969;52.304;4.968;2023-05-10T05:37:34;23.90;;;18.33;;
9860;SDS011;4969;52.304;4.968;2023-05-10T05:40:02;25.73;;;17.70;;
9860;SDS011;4969;52.304;4.968;2023-05-10T05:42:29;22.37;;;15.83;;
9860;SDS011;4969;52.304;4.968;2023-05-10T05:44:58;25.93;;;18.63;;
9860;SDS011;4969;52.304;4.968;2023-05-10T05:47:25;25.07;;;18.10;;
9860;SDS011;4969;52.304;4.968;2023-05-10T05:49:51;21.80;;;16.13;;
9860;SDS011;4969;52.304;4.968;2023-05-10T05:52:18;21.00;;;16.97;;
9860;SDS011;4969;52.304;4.968;2023-05-10T05:54:46;22.87;;;16.50;;
9860;SDS011;4969;52.304;4.968;2023-05-10T05:57:12;21.87;;;18.03;;
9860;SDS011;4969;52.304;4.968;2023-05-10T05:59:39;20.87;;;16.70;;
9860;SDS011;4969;52.304;4.968;2023-05-10T06:02:10;18.20;;;15.43;;
9860;SDS011;4969;52.304;4.968;2023-05-10T06:04:36;20.27;;;15.63;;
9860;SDS011;4969;52.304;4.968;2023-05-10T06:07:03;18.07;;;15.97;;
9860;SDS011;4969;52.304;4.968;2023-05-10T06:09:29;21.10;;;16.23;;
9860;SDS011;4969;52.304;4.968;2023-05-10T06:11:56;17.10;;;15.07;;
9860;SDS011;4969;52.304;4.968;2023-05-10T06:14:23;21.47;;;17.13;;
9860;SDS011;4969;52.304;4.968;2023-05-10T06:16:49;17.35;;;14.90;;
9860;SDS011;4969;52.304;4.968;2023-05-10T06:19:17;18.43;;;16.10;;
9860;SDS011;4969;52.304;4.968;2023-05-10T06:21:43;18.10;;;16.17;;
9860;SDS011;4969;52.304;4.968;2023-05-10T06:24:10;18.60;;;15.75;;
9860;SDS011;4969;52.304;4.968;2023-05-10T06:26:37;17.90;;;15.75;;
9860;SDS011;4969;52.304;4.968;2023-05-10T06:29:03;14.23;;;12.90;;
9860;SDS011;4969;52.304;4.968;2023-05-10T06:31:30;17.43;;;15.33;;
9860;SDS011;4969;52.304;4.968;2023-05-10T06:33:56;19.03;;;15.93;;
9860;SDS011;4969;52.304;4.968;2023-05-10T06:36:25;19.40;;;15.95;;
9860;SDS011;4969;52.304;4.968;2023-05-10T06:38:52;20.40;;;16.13;;
9860;SDS011;4969;52.304;4.968;2023-05-10T06:41:19;20.70;;;15.73;;
9860;SDS011;4969;52.304;4.968;2023-05-10T06:43:46;19.90;;;17.03;;
9860;SDS011;4969;52.304;4.968;2023-05-10T06:46:12;19.47;;;16.33;;
9860;SDS011;4969;52.304;4.968;2023-05-10T06:48:39;17.97;;;16.07;;
9860;SDS011;4969;52.304;4.968;2023-05-10T06:51:06;19.03;;;16.50;;
9860;SDS011;4969;52.304;4.968;2023-05-10T06:53:34;21.43;;;16.33;;
9860;SDS011;4969;52.304;4.968;2023-05-10T06:56:00;22.07;;;16.80;;
9860;SDS011;4969;52.304;4.968;2023-05-10T06:58:28;18.47;;;15.77;;
9860;SDS011;4969;52.304;4.968;2023-05-10T07:00:54;17.92;;;15.45;;
9860;SDS011;4969;52.304;4.968;2023-05-10T07:03:28;16.90;;;14.87;;
9860;SDS011;4969;52.304;4.968;2023-05-10T07:05:59;16.97;;;14.73;;
9860;SDS011;4969;52.304;4.968;2023-05-10T07:08:26;16.40;;;14.60;;
9860;SDS011;4969;52.304;4.968;2023-05-10T07:10:54;19.03;;;15.50;;
9860;SDS011;4969;52.304;4.968;2023-05-10T07:13:26;18.77;;;14.40;;
9860;SDS011;4969;52.304;4.968;2023-05-10T07:15:52;14.43;;;12.37;;
9860;SDS011;4969;52.304;4.968;2023-05-10T07:18:19;16.70;;;15.10;;
9860;SDS011;4969;52.304;4.968;2023-05-10T07:20:45;16.93;;;14.40;;
9860;SDS011;4969;52.304;4.968;2023-05-10T07:23:12;16.77;;;14.70;;
9860;SDS011;4969;52.304;4.968;2023-05-10T07:25:38;16.63;;;14.65;;
9860;SDS011;4969;52.304;4.968;2023-05-10T07:28:06;16.43;;;14.73;;
9860;SDS011;4969;52.304;4.968;2023-05-10T07:30:33;15.97;;;14.27;;
9860;SDS011;4969;52.304;4.968;2023-05-10T07:32:59;15.50;;;13.83;;
9860;SDS011;4969;52.304;4.968;2023-05-10T07:35:26;15.70;;;14.10;;
9860;SDS011;4969;52.304;4.968;2023-05-10T07:37:52;15.67;;;14.07;;
9860;SDS011;4969;52.304;4.968;2023-05-10T07:40:19;14.93;;;13.43;;
9860;SDS011;4969;52.304;4.968;2023-05-10T07:42:46;16.17;;;14.57;;
9860;SDS011;4969;52.304;4.968;2023-05-10T07:45:14;13.97;;;12.47;;
9860;SDS011;4969;52.304;4.968;2023-05-10T07:47:40;15.95;;;14.25;;
9860;SDS011;4969;52.304;4.968;2023-05-10T07:50:07;18.02;;;15.13;;
9860;SDS011;4969;52.304;4.968;2023-05-10T07:52:34;17.60;;;15.75;;
9860;SDS011;4969;52.304;4.968;2023-05-10T07:55:00;16.45;;;14.75;;
9860;SDS011;4969;52.304;4.968;2023-05-10T07:57:27;17.10;;;15.43;;
9860;SDS011;4969;52.304;4.968;2023-05-10T07:59:54;16.45;;;13.60;;
9860;SDS011;4969;52.304;4.968;2023-05-10T08:02:21;15.65;;;14.07;;
9860;SDS011;4969;52.304;4.968;2023-05-10T08:04:48;16.10;;;12.27;;
9860;SDS011;4969;52.304;4.968;2023-05-10T08:07:15;13.38;;;12.07;;
9860;SDS011;4969;52.304;4.968;2023-05-10T08:09:41;15.25;;;13.75;;
9860;SDS011;4969;52.304;4.968;2023-05-10T08:12:08;15.15;;;13.55;;
9860;SDS011;4969;52.304;4.968;2023-05-10T08:14:34;12.80;;;11.48;;
9860;SDS011;4969;52.304;4.968;2023-05-10T08:17:01;14.82;;;12.80;;
9860;SDS011;4969;52.304;4.968;2023-05-10T08:19:29;12.18;;;10.73;;
9860;SDS011;4969;52.304;4.968;2023-05-10T08:21:56;13.07;;;11.65;;
9860;SDS011;4969;52.304;4.968;2023-05-10T08:24:23;12.02;;;10.75;;
9860;SDS011;4969;52.304;4.968;2023-05-10T08:26:49;11.48;;;10.32;;
9860;SDS011;4969;52.304;4.968;2023-05-10T08:29:16;10.55;;;9.55;;
9860;SDS011;4969;52.304;4.968;2023-05-10T08:31:42;9.45;;;8.52;;
9860;SDS011;4969;52.304;4.968;2023-05-10T08:34:09;9.85;;;8.88;;
9860;SDS011;4969;52.304;4.968;2023-05-10T08:36:37;9.50;;;8.60;;
9860;SDS011;4969;52.304;4.968;2023-05-10T08:39:03;10.65;;;8.40;;
9860;SDS011;4969;52.304;4.968;2023-05-10T08:41:30;8.35;;;7.63;;
9860;SDS011;4969;52.304;4.968;2023-05-10T08:44:00;9.85;;;7.43;;
9860;SDS011;4969;52.304;4.968;2023-05-10T08:46:30;12.65;;;7.70;;
9860;SDS011;4969;52.304;4.968;2023-05-10T08:48:59;7.45;;;6.75;;
9860;SDS011;4969;52.304;4.968;2023-05-10T08:51:29;7.85;;;7.15;;
9860;SDS011;4969;52.304;4.968;2023-05-10T08:54:02;8.27;;;7.15;;
9860;SDS011;4969;52.304;4.968;2023-05-10T08:56:30;9.23;;;7.43;;
9860;SDS011;4969;52.304;4.968;2023-05-10T08:58:57;7.28;;;6.68;;
9860;SDS011;4969;52.304;4.968;2023-05-10T09:01:24;7.07;;;6.47;;
9860;SDS011;4969;52.304;4.968;2023-05-10T09:03:52;7.40;;;6.55;;
9860;SDS011;4969;52.304;4.968;2023-05-10T09:06:19;6.68;;;5.57;;
9860;SDS011;4969;52.304;4.968;2023-05-10T09:08:46;6.28;;;5.70;;
9860;SDS011;4969;52.304;4.968;2023-05-10T09:11:14;5.60;;;5.13;;
9860;SDS011;4969;52.304;4.968;2023-05-10T09:13:42;5.65;;;5.15;;
9860;SDS011;4969;52.304;4.968;2023-05-10T09:16:09;5.25;;;4.60;;
9860;SDS011;4969;52.304;4.968;2023-05-10T09:18:36;6.07;;;5.50;;
9860;SDS011;4969;52.304;4.968;2023-05-10T09:21:02;4.95;;;4.55;;
9860;SDS011;4969;52.304;4.968;2023-05-10T09:23:29;4.80;;;4.40;;
9860;SDS011;4969;52.304;4.968;2023-05-10T09:26:03;5.70;;;5.18;;
9860;SDS011;4969;52.304;4.968;2023-05-10T09:28:32;5.85;;;4.60;;
9860;SDS011;4969;52.304;4.968;2023-05-10T09:30:59;4.82;;;4.50;;
9860;SDS011;4969;52.304;4.968;2023-05-10T09:33:26;5.45;;;4.95;;
9860;SDS011;4969;52.304;4.968;2023-05-10T09:35:52;5.20;;;4.70;;
9860;SDS011;4969;52.304;4.968;2023-05-10T09:38:19;6.13;;;5.50;;
9860;SDS011;4969;52.304;4.968;2023-05-10T09:40:50;5.85;;;5.35;;
9860;SDS011;4969;52.304;4.968;2023-05-10T09:43:19;7.25;;;5.55;;
9860;SDS011;4969;52.304;4.968;2023-05-10T09:45:48;5.85;;;5.28;;
9860;SDS011;4969;52.304;4.968;2023-05-10T09:48:15;5.65;;;5.13;;
9860;SDS011;4969;52.304;4.968;2023-05-10T09:50:41;5.90;;;5.32;;
9860;SDS011;4969;52.304;4.968;2023-05-10T09:53:08;5.45;;;4.95;;
9860;SDS011;4969;52.304;4.968;2023-05-10T09:55:38;5.35;;;4.85;;
9860;SDS011;4969;52.304;4.968;2023-05-10T09:58:06;5.80;;;4.88;;
9860;SDS011;4969;52.304;4.968;2023-05-10T10:00:35;5.35;;;4.85;;
9860;SDS011;4969;52.304;4.968;2023-05-10T10:03:04;6.25;;;5.70;;
9860;SDS011;4969;52.304;4.968;2023-05-10T10:05:31;5.38;;;4.88;;
9860;SDS011;4969;52.304;4.968;2023-05-10T10:07:59;6.00;;;4.32;;
9860;SDS011;4969;52.304;4.968;2023-05-10T10:10:26;6.97;;;5.13;;
9860;SDS011;4969;52.304;4.968;2023-05-10T10:12:54;6.05;;;4.72;;
9860;SDS011;4969;52.304;4.968;2023-05-10T10:15:21;3.95;;;3.55;;
9860;SDS011;4969;52.304;4.968;2023-05-10T10:17:48;5.30;;;3.58;;
9860;SDS011;4969;52.304;4.968;2023-05-10T10:20:17;5.70;;;3.40;;
9860;SDS011;4969;52.304;4.968;2023-05-10T10:22:45;5.03;;;3.38;;
9860;SDS011;4969;52.304;4.968;2023-05-10T10:25:13;4.60;;;2.97;;
9860;SDS011;4969;52.304;4.968;2023-05-10T10:27:43;3.67;;;2.95;;
9860;SDS011;4969;52.304;4.968;2023-05-10T10:30:17;3.25;;;2.95;;
9860;SDS011;4969;52.304;4.968;2023-05-10T10:33:01;5.00;;;3.80;;
9860;SDS011;4969;52.304;4.968;2023-05-10T10:35:53;4.53;;;3.10;;
9860;SDS011;4969;52.304;4.968;2023-05-10T10:38:21;3.90;;;3.47;;
9860;SDS011;4969;52.304;4.968;2023-05-10T10:40:48;3.47;;;3.13;;
9860;SDS011;4969;52.304;4.968;2023-05-10T10:43:27;3.38;;;3.08;;
9860;SDS011;4969;52.304;4.968;2023-05-10T10:46:09;3.53;;;3.03;;
9860;SDS011;4969;52.304;4.968;2023-05-10T10:48:37;3.30;;;3.10;;
9860;SDS011;4969;52.304;4.968;2023-05-10T10:51:05;3.63;;;3.10;;
9860;SDS011;4969;52.304;4.968;2023-05-10T10:53:31;3.85;;;3.45;;
9860;SDS011;4969;52.304;4.968;2023-05-10T10:56:02;3.72;;;3.30;;
9860;SDS011;4969;52.304;4.968;2023-05-10T10:58:32;4.45;;;3.78;;
9860;SDS011;4969;52.304;4.968;2023-05-10T11:01:08;4.15;;;3.50;;
9860;SDS011;4969;52.304;4.968;2023-05-10T11:03:40;4.40;;;4.00;;
9860;SDS011;4969;52.304;4.968;2023-05-10T11:06:08;3.75;;;3.40;;
9860;SDS011;4969;52.304;4.968;2023-05-10T11:08:41;3.75;;;3.13;;
9860;SDS011;4969;52.304;4.968;2023-05-10T11:11:13;3.50;;;3.20;;
9860;SDS011;4969;52.304;4.968;2023-05-10T11:13:41;4.95;;;3.40;;
9860;SDS011;4969;52.304;4.968;2023-05-10T11:16:13;4.25;;;3.90;;
9860;SDS011;4969;52.304;4.968;2023-05-10T11:21:45;4.20;;;3.80;;
9860;SDS011;4969;52.304;4.968;2023-05-10T11:24:14;4.20;;;3.80;;
9860;SDS011;4969;52.304;4.968;2023-05-10T11:26:42;4.43;;;4.05;;
9860;SDS011;4969;52.304;4.968;2023-05-10T11:29:09;4.68;;;4.28;;
9860;SDS011;4969;52.304;4.968;2023-05-10T11:31:35;4.80;;;4.32;;
9860;SDS011;4969;52.304;4.968;2023-05-10T11:34:08;5.03;;;4.53;;
9860;SDS011;4969;52.304;4.968;2023-05-10T11:36:36;5.10;;;4.70;;
9860;SDS011;4969;52.304;4.968;2023-05-10T11:39:04;5.68;;;4.72;;
9860;SDS011;4969;52.304;4.968;2023-05-10T11:41:31;4.72;;;4.30;;
9860;SDS011;4969;52.304;4.968;2023-05-10T11:43:58;5.20;;;4.70;;
9860;SDS011;4969;52.304;4.968;2023-05-10T11:46:25;5.10;;;4.70;;
9860;SDS011;4969;52.304;4.968;2023-05-10T11:48:54;4.60;;;4.20;;
9860;SDS011;4969;52.304;4.968;2023-05-10T11:51:22;4.53;;;3.80;;
9860;SDS011;4969;52.304;4.968;2023-05-10T11:53:49;3.95;;;3.65;;
9860;SDS011;4969;52.304;4.968;2023-05-10T11:56:18;4.18;;;3.78;;
9860;SDS011;4969;52.304;4.968;2023-05-10T11:58:45;3.97;;;3.60;;
9860;SDS011;4969;52.304;4.968;2023-05-10T12:01:19;4.53;;;3.10;;
9860;SDS011;4969;52.304;4.968;2023-05-10T12:03:47;3.67;;;3.47;;
9860;SDS011;4969;52.304;4.968;2023-05-10T12:06:14;4.32;;;3.95;;
9860;SDS011;4969;52.304;4.968;2023-05-10T12:08:43;4.90;;;4.50;;
9860;SDS011;4969;52.304;4.968;2023-05-10T12:11:11;4.63;;;3.90;;
9860;SDS011;4969;52.304;4.968;2023-05-10T12:13:40;5.10;;;4.70;;
9860;SDS011;4969;52.304;4.968;2023-05-10T12:16:15;6.03;;;5.50;;
9860;SDS011;4969;52.304;4.968;2023-05-10T12:18:43;4.80;;;4.50;;
9860;SDS011;4969;52.304;4.968;2023-05-10T12:21:10;5.30;;;4.80;;
9860;SDS011;4969;52.304;4.968;2023-05-10T12:23:37;5.80;;;5.20;;
9860;SDS011;4969;52.304;4.968;2023-05-10T12:26:04;5.03;;;4.53;;
9860;SDS011;4969;52.304;4.968;2023-05-10T12:28:31;5.65;;;5.15;;
9860;SDS011;4969;52.304;4.968;2023-05-10T12:31:00;5.25;;;4.75;;
9860;SDS011;4969;52.304;4.968;2023-05-10T12:33:28;6.30;;;5.70;;
9860;SDS011;4969;52.304;4.968;2023-05-10T12:36:01;6.60;;;6.07;;
9860;SDS011;4969;52.304;4.968;2023-05-10T12:38:29;6.93;;;6.32;;
9860;SDS011;4969;52.304;4.968;2023-05-10T12:40:58;7.55;;;6.85;;
9860;SDS011;4969;52.304;4.968;2023-05-10T12:43:25;8.57;;;6.65;;
9860;SDS011;4969;52.304;4.968;2023-05-10T12:45:52;9.10;;;7.75;;
9860;SDS011;4969;52.304;4.968;2023-05-10T12:48:20;9.40;;;7.72;;
9860;SDS011;4969;52.304;4.968;2023-05-10T12:50:47;8.43;;;7.40;;
9860;SDS011;4969;52.304;4.968;2023-05-10T12:53:14;8.05;;;7.25;;
9860;SDS011;4969;52.304;4.968;2023-05-10T12:55:41;9.40;;;7.50;;
9860;SDS011;4969;52.304;4.968;2023-05-10T12:58:08;9.52;;;7.20;;
9860;SDS011;4969;52.304;4.968;2023-05-10T13:00:34;8.43;;;7.22;;
9860;SDS011;4969;52.304;4.968;2023-05-10T13:03:03;11.20;;;7.85;;
9860;SDS011;4969;52.304;4.968;2023-05-10T13:05:31;7.80;;;6.85;;
9860;SDS011;4969;52.304;4.968;2023-05-10T13:07:58;8.77;;;7.43;;
9860;SDS011;4969;52.304;4.968;2023-05-10T13:10:24;8.95;;;7.90;;
9860;SDS011;4969;52.304;4.968;2023-05-10T13:12:51;9.05;;;6.88;;
9860;SDS011;4969;52.304;4.968;2023-05-10T13:15:17;10.50;;;7.80;;
9860;SDS011;4969;52.304;4.968;2023-05-10T13:17:44;9.98;;;6.80;;
9860;SDS011;4969;52.304;4.968;2023-05-10T13:20:11;8.13;;;6.32;;
9860;SDS011;4969;52.304;4.968;2023-05-10T13:22:39;8.02;;;6.20;;
9860;SDS011;4969;52.304;4.968;2023-05-10T13:25:05;7.32;;;6.18;;
9860;SDS011;4969;52.304;4.968;2023-05-10T13:27:32;8.10;;;5.28;;
9860;SDS011;4969;52.304;4.968;2023-05-10T13:29:59;6.90;;;5.78;;
9860;SDS011;4969;52.304;4.968;2023-05-10T13:32:25;5.75;;;4.72;;
9860;SDS011;4969;52.304;4.968;2023-05-10T13:34:52;5.03;;;4.22;;
9860;SDS011;4969;52.304;4.968;2023-05-10T13:37:18;5.32;;;3.90;;
9860;SDS011;4969;52.304;4.968;2023-05-10T13:39:47;4.28;;;3.67;;
9860;SDS011;4969;52.304;4.968;2023-05-10T13:42:13;4.20;;;3.80;;
9860;SDS011;4969;52.304;4.968;2023-05-10T13:44:40;5.55;;;4.22;;
9860;SDS011;4969;52.304;4.968;2023-05-10T13:47:06;5.20;;;4.18;;
9860;SDS011;4969;52.304;4.968;2023-05-10T13:49:33;6.38;;;5.38;;
9860;SDS011;4969;52.304;4.968;2023-05-10T13:51:59;5.90;;;5.20;;
9860;SDS011;4969;52.304;4.968;2023-05-10T13:54:31;6.90;;;5.13;;
9860;SDS011;4969;52.304;4.968;2023-05-10T13:56:58;8.35;;;5.80;;
9860;SDS011;4969;52.304;4.968;2023-05-10T13:59:25;8.63;;;6.78;;
9860;SDS011;4969;52.304;4.968;2023-05-10T14:01:52;9.55;;;6.70;;
9860;SDS011;4969;52.304;4.968;2023-05-10T14:04:18;7.85;;;5.70;;
9860;SDS011;4969;52.304;4.968;2023-05-10T14:06:45;9.50;;;7.57;;
9860;SDS011;4969;52.304;4.968;2023-05-10T14:09:12;9.73;;;6.85;;
9860;SDS011;4969;52.304;4.968;2023-05-10T14:11:38;11.75;;;7.55;;
9860;SDS011;4969;52.304;4.968;2023-05-10T14:14:09;12.45;;;7.35;;
9860;SDS011;4969;52.304;4.968;2023-05-10T14:16:36;10.70;;;7.75;;
9860;SDS011;4969;52.304;4.968;2023-05-10T14:19:02;10.05;;;8.65;;
9860;SDS011;4969;52.304;4.968;2023-05-10T14:21:29;11.40;;;7.85;;
9860;SDS011;4969;52.304;4.968;2023-05-10T14:23:55;15.23;;;9.95;;
9860;SDS011;4969;52.304;4.968;2023-05-10T14:26:22;11.18;;;8.38;;
9860;SDS011;4969;52.304;4.968;2023-05-10T14:28:49;9.43;;;6.75;;
9860;SDS011;4969;52.304;4.968;2023-05-10T14:31:17;11.07;;;8.55;;
9860;SDS011;4969;52.304;4.968;2023-05-10T14:33:45;9.02;;;7.75;;
9860;SDS011;4969;52.304;4.968;2023-05-10T14:36:11;12.13;;;9.10;;
9860;SDS011;4969;52.304;4.968;2023-05-10T14:38:38;13.07;;;9.00;;
9860;SDS011;4969;52.304;4.968;2023-05-10T14:41:05;11.25;;;9.23;;
9860;SDS011;4969;52.304;4.968;2023-05-10T14:43:32;11.45;;;9.13;;
9860;SDS011;4969;52.304;4.968;2023-05-10T14:45:58;11.40;;;7.82;;
9860;SDS011;4969;52.304;4.968;2023-05-10T14:48:26;9.50;;;7.18;;
9860;SDS011;4969;52.304;4.968;2023-05-10T14:50:53;9.25;;;8.20;;
9860;SDS011;4969;52.304;4.968;2023-05-10T14:53:19;8.90;;;7.10;;
9860;SDS011;4969;52.304;4.968;2023-05-10T14:55:46;12.18;;;8.32;;
9860;SDS011;4969;52.304;4.968;2023-05-10T14:58:12;9.23;;;7.97;;
9860;SDS011;4969;52.304;4.968;2023-05-10T15:00:40;9.98;;;7.85;;
9860;SDS011;4969;52.304;4.968;2023-05-10T15:03:06;12.40;;;9.18;;
9860;SDS011;4969;52.304;4.968;2023-05-10T15:05:34;10.85;;;9.10;;
9860;SDS011;4969;52.304;4.968;2023-05-10T15:08:02;8.52;;;6.88;;